createdAt,value
2022-08-14T00:01:59.345Z,2.42
2022-08-14T00:04:34.902Z,2.00
2022-08-14T00:07:08.329Z,2.10
2022-08-14T00:09:55.876Z,1.95
2022-08-14T00:12:33.417Z,2.22
2022-08-14T00:15:09.493Z,2.15
2022-08-14T00:17:47.556Z,2.30
2022-08-14T00:20:24.089Z,2.10
2022-08-14T00:23:16.545Z,2.30
2022-08-14T00:25:53.941Z,2.30
2022-08-14T00:28:35.342Z,2.50
2022-08-14T00:31:05.634Z,1.98
2022-08-14T00:33:51.565Z,2.05
2022-08-14T00:36:35.083Z,2.53
2022-08-14T00:39:09.274Z,2.20
2022-08-14T00:41:38.760Z,1.95
2022-08-14T00:44:08.114Z,2.25
2022-08-14T00:46:37.745Z,2.33
2022-08-14T00:49:05.919Z,2.25
2022-08-14T00:51:37.691Z,2.45
2022-08-14T00:54:16.759Z,2.53
2022-08-14T00:56:50.616Z,2.35
2022-08-14T00:59:18.730Z,2.33
2022-08-14T01:01:48.601Z,2.30
2022-08-14T01:04:38.304Z,2.13
2022-08-14T01:07:08.231Z,2.33
2022-08-14T01:09:39.521Z,2.20
2022-08-14T01:12:08.385Z,2.30
2022-08-14T01:14:36.491Z,2.00
2022-08-14T01:17:05.692Z,2.42
2022-08-14T01:19:54.501Z,2.10
2022-08-14T01:22:26.822Z,2.15
2022-08-14T01:24:57.893Z,1.85
2022-08-14T01:27:28.599Z,1.90
2022-08-14T01:30:04.532Z,2.00
2022-08-14T01:32:37.619Z,2.05
2022-08-14T01:35:18.770Z,2.28
2022-08-14T01:38:00.162Z,2.30
2022-08-14T01:40:33.127Z,1.95
2022-08-14T01:43:05.117Z,1.90
2022-08-14T01:45:40.549Z,2.10
2022-08-14T01:48:13.267Z,1.85
2022-08-14T01:50:42.626Z,2.13
2022-08-14T01:53:13.721Z,2.03
2022-08-14T01:55:42.943Z,2.00
2022-08-14T01:58:20.028Z,2.25
2022-08-14T02:00:58.561Z,2.40
2022-08-14T02:03:30.998Z,1.80
2022-08-14T02:06:03.999Z,2.03
2022-08-14T02:08:53.159Z,2.10
2022-08-14T02:11:24.429Z,2.05
2022-08-14T02:13:59.612Z,2.15
2022-08-14T02:16:39.168Z,1.85
2022-08-14T02:19:11.141Z,2.00
2022-08-14T02:21:46.975Z,2.10
2022-08-14T02:24:39.698Z,2.20
2022-08-14T02:28:24.819Z,2.30
2022-08-14T02:30:02.090Z,2.15
2022-08-14T02:32:36.497Z,2.17
2022-08-14T02:35:10.242Z,2.25
2022-08-14T02:37:48.343Z,2.05
2022-08-14T02:40:18.979Z,2.30
2022-08-14T02:42:54.649Z,2.25
2022-08-14T02:45:25.654Z,2.17
2022-08-14T02:48:02.156Z,2.10
2022-08-14T02:50:33.768Z,2.08
2022-08-14T02:53:02.858Z,2.00
2022-08-14T02:55:33.264Z,2.15
2022-08-14T02:58:03.080Z,1.92
2022-08-14T03:00:35.494Z,2.38
2022-08-14T03:03:08.277Z,2.40
2022-08-14T03:05:41.740Z,2.33
2022-08-14T03:08:15.778Z,2.42
2022-08-14T03:10:49.160Z,2.15
2022-08-14T03:13:19.240Z,2.20
2022-08-14T03:15:51.006Z,2.30
2022-08-14T03:18:32.074Z,2.00
2022-08-14T03:21:05.438Z,2.25
2022-08-14T03:23:38.081Z,2.40
2022-08-14T03:26:12.895Z,2.28
2022-08-14T03:28:50.142Z,2.83
2022-08-14T03:31:22.097Z,2.40
2022-08-14T03:33:54.285Z,2.38
2022-08-14T03:37:50.798Z,2.30
2022-08-14T03:39:22.972Z,2.30
2022-08-14T03:41:56.189Z,2.28
2022-08-14T03:45:19.257Z,2.38
2022-08-14T03:47:16.789Z,2.30
2022-08-14T03:49:50.193Z,2.50
2022-08-14T03:52:38.981Z,2.40
2022-08-14T03:55:08.837Z,2.40
2022-08-14T03:57:40.484Z,2.25
2022-08-14T04:00:13.846Z,2.50
2022-08-14T04:03:02.321Z,2.22
2022-08-14T04:05:38.114Z,2.40
2022-08-14T04:08:30.157Z,2.08
2022-08-14T04:11:01.182Z,2.85
2022-08-14T04:13:33.931Z,2.22
2022-08-14T04:16:05.059Z,2.30
2022-08-14T04:18:34.912Z,2.55
2022-08-14T04:21:03.888Z,2.55
2022-08-14T04:23:33.265Z,2.20
2022-08-14T04:26:03.111Z,2.30
2022-08-14T04:29:07.768Z,2.17
2022-08-14T04:31:25.050Z,2.55
2022-08-14T04:34:17.100Z,2.30
2022-08-14T04:37:07.453Z,2.88
2022-08-14T04:39:56.802Z,2.42
2022-08-14T04:42:47.392Z,2.80
2022-08-14T04:45:23.246Z,2.80
2022-08-14T04:48:09.969Z,2.42
2022-08-14T04:50:44.554Z,2.45
2022-08-14T04:53:15.233Z,2.60
2022-08-14T04:55:50.022Z,2.45
2022-08-14T04:58:32.561Z,2.60
2022-08-14T05:01:06.188Z,2.80
2022-08-14T05:03:41.110Z,2.70
2022-08-14T05:06:35.015Z,3.10
2022-08-14T05:09:00.607Z,2.60
2022-08-14T05:11:33.414Z,2.70
2022-08-14T05:14:34.283Z,2.20
2022-08-14T05:16:59.269Z,2.50
2022-08-14T05:19:29.971Z,2.40
2022-08-14T05:22:17.033Z,2.45
2022-08-14T05:24:49.616Z,2.30
2022-08-14T05:27:22.789Z,2.33
2022-08-14T05:29:53.365Z,2.40
2022-08-14T05:32:23.636Z,5.95
2022-08-14T05:34:58.167Z,2.58
2022-08-14T05:37:28.144Z,2.63
2022-08-14T05:39:56.528Z,2.40
2022-08-14T05:42:29.328Z,2.70
2022-08-14T05:45:00.488Z,2.10
2022-08-14T05:47:39.073Z,2.35
2022-08-14T05:50:17.372Z,2.50
2022-08-14T05:52:48.459Z,2.47
2022-08-14T05:55:22.002Z,2.50
2022-08-14T05:57:53.201Z,2.30
2022-08-14T06:00:28.361Z,2.72
2022-08-14T06:03:00.503Z,2.67
2022-08-14T06:05:29.589Z,2.40
2022-08-14T06:07:58.253Z,2.30
2022-08-14T06:10:28.180Z,2.28
2022-08-14T06:12:57.974Z,2.33
2022-08-14T06:15:29.920Z,2.30
2022-08-14T06:18:01.767Z,2.50
2022-08-14T06:20:30.915Z,2.50
2022-08-14T06:23:00.198Z,2.53
2022-08-14T06:25:28.831Z,2.42
2022-08-14T06:28:02.069Z,2.33
2022-08-14T06:30:46.475Z,2.38
2022-08-14T06:33:18.281Z,2.33
2022-08-14T06:35:47.282Z,2.70
2022-08-14T06:38:19.954Z,2.50
2022-08-14T06:40:50.334Z,2.60
2022-08-14T06:43:20.227Z,2.50
2022-08-14T06:45:54.450Z,2.60
2022-08-14T06:48:25.321Z,2.22
2022-08-14T06:50:55.208Z,2.47
2022-08-14T06:53:28.216Z,2.42
2022-08-14T06:56:00.737Z,2.30
2022-08-14T06:58:32.319Z,2.40
2022-08-14T07:01:24.795Z,2.25
2022-08-14T07:04:22.611Z,2.30
2022-08-14T07:06:51.565Z,2.20
2022-08-14T07:09:24.237Z,2.35
2022-08-14T07:11:52.574Z,2.38
2022-08-14T07:14:20.549Z,2.40
2022-08-14T07:16:48.831Z,2.50
2022-08-14T07:19:21.121Z,2.67
2022-08-14T07:21:50.162Z,2.38
2022-08-14T07:24:21.836Z,2.30
2022-08-14T07:26:54.229Z,2.20
2022-08-14T07:29:26.323Z,2.28
2022-08-14T07:31:57.033Z,2.20
2022-08-14T07:34:40.638Z,2.20
2022-08-14T07:37:09.917Z,1.90
2022-08-14T07:39:38.554Z,1.70
2022-08-14T07:42:08.016Z,2.00
2022-08-14T07:44:46.454Z,2.17
2022-08-14T07:47:17.123Z,2.10
2022-08-14T07:49:58.788Z,2.28
2022-08-14T07:52:40.546Z,2.10
2022-08-14T07:55:11.921Z,2.30
2022-08-14T07:57:40.736Z,2.38
2022-08-14T08:00:30.987Z,2.20
2022-08-14T08:03:00.603Z,2.35
2022-08-14T08:05:30.201Z,2.20
2022-08-14T08:07:59.054Z,2.20
2022-08-14T08:10:57.236Z,2.45
2022-08-14T08:13:24.138Z,2.42
2022-08-14T08:15:54.769Z,2.42
2022-08-14T08:18:27.629Z,2.20
2022-08-14T08:21:00.205Z,2.53
2022-08-14T08:23:43.466Z,2.22
2022-08-14T08:26:19.116Z,2.42
2022-08-14T08:28:57.804Z,2.40
2022-08-14T08:31:34.897Z,2.80
2022-08-14T08:34:06.433Z,2.55
2022-08-14T08:36:42.984Z,2.58
2022-08-14T08:39:22.847Z,2.08
2022-08-14T08:41:53.868Z,2.53
2022-08-14T08:44:33.055Z,2.20
2022-08-14T08:47:06.159Z,2.13
2022-08-14T08:49:48.489Z,2.10
2022-08-14T08:52:25.294Z,2.30
2022-08-14T08:54:59.290Z,2.20
2022-08-14T08:57:35.785Z,2.25
2022-08-14T09:00:25.683Z,2.40
2022-08-14T09:02:57.455Z,2.20
2022-08-14T09:05:26.342Z,2.28
2022-08-14T09:07:56.828Z,2.15
2022-08-14T09:10:27.205Z,2.35
2022-08-14T09:12:56.161Z,2.13
2022-08-14T09:15:24.371Z,2.38
2022-08-14T09:17:54.552Z,2.20
2022-08-14T09:20:29.516Z,2.50
2022-08-14T09:23:00.815Z,2.60
2022-08-14T09:26:00.513Z,2.65
2022-08-14T09:28:19.225Z,2.22
2022-08-14T09:30:54.035Z,2.00
2022-08-14T09:33:56.502Z,2.40
2022-08-14T09:37:01.252Z,2.50
2022-08-14T09:39:43.885Z,2.20
2022-08-14T09:42:33.500Z,2.40
2022-08-14T09:45:15.143Z,2.22
2022-08-14T09:47:46.849Z,2.28
2022-08-14T09:50:25.682Z,2.40
2022-08-14T09:52:57.387Z,2.22
2022-08-14T09:55:33.383Z,2.40
2022-08-14T09:58:15.050Z,2.25
2022-08-14T10:00:53.928Z,2.15
2022-08-14T10:03:33.826Z,2.38
2022-08-14T10:06:07.264Z,2.38
2022-08-14T10:08:44.841Z,2.45
2022-08-14T10:11:24.686Z,2.20
2022-08-14T10:14:21.140Z,2.10
2022-08-14T10:16:59.489Z,2.28
2022-08-14T10:19:29.015Z,2.10
2022-08-14T10:23:15.311Z,2.03
2022-08-14T10:24:51.846Z,2.40
2022-08-14T10:27:24.312Z,1.85
2022-08-14T10:29:54.383Z,2.00
2022-08-14T10:32:36.121Z,2.00
2022-08-14T10:35:14.572Z,1.95
2022-08-14T10:37:48.197Z,2.05
2022-08-14T10:40:37.861Z,2.25
2022-08-14T10:43:26.130Z,2.05
2022-08-14T10:46:21.607Z,2.13
2022-08-14T10:48:58.362Z,2.10
2022-08-14T10:51:30.101Z,1.73
2022-08-14T10:54:02.042Z,1.90
2022-08-14T10:56:51.756Z,2.00
2022-08-14T10:59:23.380Z,1.70
2022-08-14T11:01:59.903Z,1.60
2022-08-14T11:04:30.267Z,1.80
2022-08-14T11:06:58.723Z,2.08
2022-08-14T11:09:31.645Z,1.90
2022-08-14T11:12:34.535Z,2.08
2022-08-14T11:14:56.358Z,2.00
2022-08-14T11:17:31.728Z,1.58
2022-08-14T11:20:01.917Z,1.60
2022-08-14T11:22:52.730Z,1.70
2022-08-14T11:25:23.427Z,1.50
2022-08-14T11:27:53.945Z,1.75
2022-08-14T11:30:51.438Z,1.60
2022-08-14T11:33:14.152Z,1.70
2022-08-14T11:35:49.711Z,1.60
2022-08-14T11:38:21.688Z,1.58
2022-08-14T11:40:49.762Z,1.70
2022-08-14T11:43:22.631Z,1.60
2022-08-14T11:45:58.683Z,1.75
2022-08-14T11:48:59.177Z,1.95
2022-08-14T11:51:23.747Z,1.73
2022-08-14T11:53:54.256Z,1.80
2022-08-14T11:56:25.796Z,1.80
2022-08-14T11:58:58.617Z,1.77
2022-08-14T12:01:31.160Z,1.88
2022-08-14T12:04:32.710Z,1.95
2022-08-14T12:07:00.760Z,1.70
2022-08-14T12:09:31.438Z,1.70
2022-08-14T12:11:59.582Z,2.42
2022-08-14T12:14:34.691Z,1.70
2022-08-14T12:17:12.438Z,1.55
2022-08-14T12:19:51.032Z,1.30
2022-08-14T12:22:34.500Z,1.85
2022-08-14T12:25:07.127Z,1.67
2022-08-14T12:27:53.459Z,1.58
2022-08-14T12:30:39.351Z,1.50
2022-08-14T12:33:25.686Z,1.60
2022-08-14T12:35:58.474Z,2.70
2022-08-14T12:38:35.962Z,1.75
2022-08-14T12:41:06.410Z,1.48
2022-08-14T12:43:48.074Z,1.70
2022-08-14T12:46:26.920Z,1.98
2022-08-14T12:48:58.494Z,2.28
2022-08-14T12:51:28.245Z,2.00
2022-08-14T12:54:00.068Z,1.63
2022-08-14T12:56:34.144Z,1.60
2022-08-14T12:59:03.359Z,1.77
2022-08-14T13:01:59.477Z,1.50
2022-08-14T13:04:22.791Z,1.70
2022-08-14T13:06:52.815Z,1.80
2022-08-14T13:09:23.252Z,1.80
2022-08-14T13:11:59.144Z,1.70
2022-08-14T13:14:44.240Z,1.85
2022-08-14T13:17:12.938Z,1.70
2022-08-14T13:19:45.608Z,1.70
2022-08-14T13:22:32.018Z,1.63
2022-08-14T13:25:05.591Z,1.60
2022-08-14T13:27:39.148Z,1.52
2022-08-14T13:30:21.203Z,1.67
2022-08-14T13:32:54.202Z,1.70
2022-08-14T13:35:23.673Z,1.70
2022-08-14T13:37:53.487Z,2.22
2022-08-14T13:40:26.379Z,2.00
2022-08-14T13:42:57.468Z,1.70
2022-08-14T13:45:33.803Z,2.00
2022-08-14T13:48:18.290Z,1.73
2022-08-14T13:51:04.736Z,1.80
2022-08-14T13:53:38.212Z,1.80
2022-08-14T13:56:14.598Z,1.70
2022-08-14T13:58:46.943Z,2.05
2022-08-14T14:01:19.025Z,1.60
2022-08-14T14:03:52.650Z,1.83
2022-08-14T14:06:25.585Z,1.63
2022-08-14T14:08:59.176Z,1.90
2022-08-14T14:11:30.122Z,1.80
2022-08-14T14:14:00.507Z,1.73
2022-08-14T14:16:30.874Z,1.95
2022-08-14T14:19:08.660Z,1.92
2022-08-14T14:21:40.750Z,1.83
2022-08-14T14:24:15.147Z,1.90
2022-08-14T14:26:47.180Z,1.88
2022-08-14T14:29:16.791Z,1.83
2022-08-14T14:31:48.399Z,1.80
2022-08-14T14:34:29.132Z,1.70
2022-08-14T14:37:02.909Z,1.80
2022-08-14T14:39:37.648Z,1.70
2022-08-14T14:42:29.372Z,2.00
2022-08-14T14:45:14.190Z,1.90
2022-08-14T14:47:44.694Z,2.13
2022-08-14T14:50:17.180Z,1.92
2022-08-14T14:52:47.497Z,1.80
2022-08-14T14:55:19.987Z,1.98
2022-08-14T14:57:52.137Z,2.00
2022-08-14T15:00:24.523Z,2.00
2022-08-14T15:02:59.923Z,2.00
2022-08-14T15:05:28.302Z,1.90
2022-08-14T15:07:57.952Z,1.90
2022-08-14T15:10:34.165Z,1.88
2022-08-14T15:13:06.655Z,2.10
2022-08-14T15:15:37.468Z,2.10
2022-08-14T15:18:14.791Z,2.10
2022-08-14T15:20:57.472Z,2.17
2022-08-14T15:23:43.751Z,2.13
2022-08-14T15:26:24.202Z,2.20
2022-08-14T15:29:03.231Z,2.17
2022-08-14T15:31:36.296Z,2.17
2022-08-14T15:34:46.112Z,2.40
2022-08-14T15:37:04.362Z,2.58
2022-08-14T15:39:35.714Z,2.25
2022-08-14T15:42:14.931Z,2.10
2022-08-14T15:44:57.860Z,2.22
2022-08-14T15:47:31.130Z,2.42
2022-08-14T15:50:00.995Z,2.53
2022-08-14T15:52:32.996Z,2.20
2022-08-14T15:55:07.169Z,2.20
2022-08-14T15:57:36.564Z,2.30
2022-08-14T16:00:41.788Z,2.33
2022-08-14T16:03:14.188Z,2.28
2022-08-14T16:05:45.925Z,2.20
2022-08-14T16:08:27.200Z,2.20
2022-08-14T16:10:59.527Z,2.33
2022-08-14T16:13:41.117Z,2.22
2022-08-14T16:16:49.244Z,3.03
2022-08-14T16:19:10.063Z,2.65
2022-08-14T16:22:01.640Z,3.95
2022-08-14T16:24:33.560Z,2.90
2022-08-14T16:27:05.241Z,3.30
2022-08-14T16:29:37.990Z,2.28
2022-08-14T16:32:35.698Z,2.40
2022-08-14T16:34:57.415Z,2.50
2022-08-14T16:37:30.492Z,2.30
2022-08-14T16:40:03.162Z,2.30
2022-08-14T16:43:02.913Z,2.40
2022-08-14T16:45:27.329Z,2.63
2022-08-14T16:47:55.497Z,2.42
2022-08-14T16:50:40.550Z,2.70
2022-08-14T16:53:17.792Z,2.50
2022-08-14T16:55:53.843Z,2.25
2022-08-14T16:58:29.844Z,2.17
2022-08-14T17:01:24.902Z,2.25
2022-08-14T17:03:59.180Z,2.47
2022-08-14T17:06:49.790Z,2.20
2022-08-14T17:09:33.722Z,2.45
2022-08-14T17:12:09.367Z,2.60
2022-08-14T17:15:10.484Z,2.25
2022-08-14T17:17:57.905Z,2.30
2022-08-14T17:20:39.678Z,2.53
2022-08-14T17:23:17.937Z,2.53
2022-08-14T17:25:51.240Z,2.13
2022-08-14T17:28:52.527Z,2.47
2022-08-14T17:31:15.353Z,2.28
2022-08-14T17:33:44.607Z,2.30
2022-08-14T17:36:23.942Z,2.25
2022-08-14T17:39:06.327Z,2.28
2022-08-14T17:42:01.695Z,2.60
2022-08-14T17:44:45.214Z,2.35
2022-08-14T17:47:18.320Z,2.10
2022-08-14T17:49:52.874Z,2.50
2022-08-14T17:52:34.378Z,2.30
2022-08-14T17:55:06.466Z,2.30
2022-08-14T17:57:35.544Z,2.53
2022-08-14T18:00:13.072Z,2.55
2022-08-14T18:02:51.122Z,2.10
2022-08-14T18:05:23.480Z,2.17
2022-08-14T18:08:32.461Z,2.40
2022-08-14T18:11:00.041Z,2.45
2022-08-14T18:13:50.699Z,2.42
2022-08-14T18:16:20.227Z,2.70
2022-08-14T18:18:53.154Z,2.90
2022-08-14T18:21:56.425Z,2.92
2022-08-14T18:24:19.936Z,2.72
2022-08-14T18:27:08.768Z,2.28
2022-08-14T18:29:42.821Z,2.30
2022-08-14T18:32:47.225Z,2.00
2022-08-14T18:35:21.233Z,2.10
2022-08-14T18:37:55.583Z,2.20
2022-08-14T18:40:34.743Z,2.50
2022-08-14T18:43:06.077Z,2.47
2022-08-14T18:45:41.405Z,2.42
2022-08-14T18:48:28.844Z,2.40
2022-08-14T18:51:45.505Z,2.60
2022-08-14T18:54:32.761Z,2.67
2022-08-14T18:57:03.026Z,2.90
2022-08-14T18:59:36.503Z,2.78
2022-08-14T19:02:43.417Z,2.78
2022-08-14T19:05:12.446Z,2.58
2022-08-14T19:07:43.257Z,2.97
2022-08-14T19:10:31.783Z,2.90
2022-08-14T19:13:04.879Z,2.38
2022-08-14T19:15:36.086Z,2.63
2022-08-14T19:18:28.619Z,2.97
2022-08-14T19:20:59.833Z,2.80
2022-08-14T19:23:44.315Z,3.03
2022-08-14T19:26:36.566Z,2.58
2022-08-14T19:29:36.070Z,2.75
2022-08-14T19:32:22.715Z,2.60
2022-08-14T19:34:52.457Z,2.60
2022-08-14T19:37:46.674Z,2.42
2022-08-14T19:40:31.567Z,2.42
2022-08-14T19:43:03.328Z,2.42
2022-08-14T19:45:35.655Z,2.35
2022-08-14T19:48:11.678Z,2.67
2022-08-14T19:50:44.226Z,2.42
2022-08-14T19:53:17.588Z,2.20
2022-08-14T19:55:59.375Z,2.30
2022-08-14T19:58:54.769Z,2.30
2022-08-14T20:01:37.270Z,2.40
2022-08-14T20:04:08.475Z,2.22
2022-08-14T20:06:57.009Z,2.50
2022-08-14T20:11:06.266Z,2.55
2022-08-14T20:12:29.178Z,2.75
2022-08-14T20:15:09.161Z,3.00
2022-08-14T20:17:40.503Z,3.47
2022-08-14T20:20:20.995Z,3.30
2022-08-14T20:23:11.507Z,3.15
2022-08-14T20:25:45.579Z,3.55
2022-08-14T20:28:32.948Z,3.17
2022-08-14T20:31:17.650Z,3.45
2022-08-14T20:34:06.122Z,3.50
2022-08-14T20:36:38.941Z,3.35
2022-08-14T20:39:15.267Z,3.72
2022-08-14T20:41:51.021Z,3.40
2022-08-14T20:44:41.465Z,3.30
2022-08-14T20:47:16.327Z,3.90
2022-08-14T20:49:45.157Z,3.40
2022-08-14T20:52:18.940Z,3.50
2022-08-14T20:54:51.530Z,3.45
2022-08-14T20:57:20.428Z,4.10
2022-08-14T20:59:53.729Z,3.45
2022-08-14T21:02:46.368Z,3.53
2022-08-14T21:05:21.349Z,3.63
2022-08-14T21:07:50.232Z,3.50
2022-08-14T21:10:36.528Z,3.10
2022-08-14T21:14:17.823Z,3.28
2022-08-14T21:16:04.924Z,3.60
2022-08-14T21:18:56.307Z,3.38
2022-08-14T21:21:40.449Z,3.63
2022-08-14T21:24:39.571Z,3.25
2022-08-14T21:27:12.272Z,3.45
2022-08-14T21:29:53.673Z,3.35
2022-08-14T21:32:35.192Z,3.28
2022-08-14T21:35:08.931Z,3.17
2022-08-14T21:37:46.069Z,3.13
2022-08-14T21:40:33.217Z,3.10
2022-08-14T21:43:06.104Z,3.03
2022-08-14T21:45:46.058Z,3.42
2022-08-14T21:48:22.314Z,3.28
2022-08-14T21:51:01.188Z,3.63
2022-08-14T21:53:58.406Z,3.25
2022-08-14T21:56:37.567Z,3.28
2022-08-14T21:59:10.823Z,3.65
2022-08-14T22:02:00.490Z,3.15
2022-08-14T22:04:34.514Z,3.08
2022-08-14T22:07:12.569Z,3.45
2022-08-14T22:09:45.346Z,3.05
2022-08-14T22:12:57.904Z,3.40
2022-08-14T22:15:13.399Z,3.30
2022-08-14T22:17:44.126Z,3.10
2022-08-14T22:20:16.218Z,3.35
2022-08-14T22:22:46.327Z,3.65
2022-08-14T22:25:17.291Z,3.50
2022-08-14T22:27:55.318Z,3.10
2022-08-14T22:30:25.169Z,3.40
2022-08-14T22:32:56.646Z,3.53
2022-08-14T22:35:26.325Z,3.53
2022-08-14T22:38:35.036Z,3.50
2022-08-14T22:41:07.868Z,3.75
2022-08-14T22:43:35.035Z,3.40
2022-08-14T22:46:06.186Z,3.75
2022-08-14T22:48:43.048Z,3.40
2022-08-14T22:51:13.411Z,3.83
2022-08-14T22:53:44.891Z,3.55
2022-08-14T22:56:20.110Z,3.63
2022-08-14T22:58:53.997Z,4.20
2022-08-14T23:01:55.621Z,3.90
2022-08-14T23:04:34.741Z,3.85
2022-08-14T23:07:21.745Z,3.40
2022-08-14T23:09:56.446Z,3.40
2022-08-14T23:12:27.812Z,4.07
2022-08-14T23:14:56.125Z,4.07
2022-08-14T23:17:24.219Z,4.50
2022-08-14T23:19:56.363Z,4.18
2022-08-14T23:22:26.068Z,4.05
2022-08-14T23:24:56.728Z,3.95
2022-08-14T23:27:31.961Z,4.32
2022-08-14T23:30:33.999Z,4.10
2022-08-14T23:33:05.107Z,4.07
2022-08-14T23:35:34.473Z,3.88
2022-08-14T23:38:02.910Z,3.92
2022-08-14T23:40:32.610Z,4.18
2022-08-14T23:43:08.218Z,4.28
2022-08-14T23:45:40.004Z,3.88
2022-08-14T23:48:12.637Z,4.32
2022-08-14T23:50:44.208Z,4.32
2022-08-14T23:53:27.948Z,4.30
2022-08-14T23:56:10.353Z,4.25
2022-08-14T23:58:42.249Z,4.47
